Terminal Aerodrome Forecast
Issued by NWS Mt. Holly, NJ

Current Version | Previous Version | Text Only | Print | Product List | Glossary On
Versions: 1 2 3 4 5 6 7 8 9 10 11 12 13 14
000
FTUS41 KPHI 310532
TAFILG
TAF
KILG 310532Z 3106/0106 21006KT P6SM SCT200
     FM311500 26011KT P6SM SCT050 BKN200
     FM312200 24009KT P6SM SCT050
     FM010000 23005KT P6SM SCT250=

USA.gov is the U.S. government's official web portal to all federal, state and local government web resources and services.